Jou Jou — DA3423 — position and weather

sailwx.info

Track history (hours):
 
Tides and Currents Weather Stations Pressure Air Temp Water Temp Dewpoint Dewpoint Depression Visibility Wind Speed Wind Dir Waves Ship Positions

Jou Jou

Last reported at 2016-Oct-31 07:15 UTC. Time now 2016-Dec-09 04:05 UTC.
Position N 51°36' E 004°01'.
Warning: this ship's position is 38 days out of date.

Length 12 m.

Type: Sailing vessel. MMSI: 211187970.

Date/timePositionNaut miles runAvg speedWind from/ knotsBaromVisibWave heightAir tempDewpointWater temp
2016-Oct-31 07:15N 51°36' E 004°01'15 4.1
2016-Oct-31 03:33N 51°38' E 003°36'42 6.0
2016-Oct-30 20:33N 52°16' E 004°08'43 6.1
2016-Oct-30 13:31N 52°56' E 004°33'7 6.7
2016-Oct-30 12:25N 53°03' E 004°37'34 7.0
2016-Oct-30 07:32N 53°27' E 005°17'30 5.8
2016-Oct-30 02:23N 53°36' E 006°05'91 6.1
2016-Oct-29 11:28N 53°57' E 008°36'6 3.0
2016-Oct-29 09:21N 53°52' E 008°42'0 0.0
2016-Oct-29 06:32N 53°52' E 008°42'0 0.0
2016-Oct-29 02:19N 53°53' E 008°42'0 0.0
2016-Oct-28 23:25N 53°53' E 008°42'0 0.0
2016-Oct-28 21:31N 53°53' E 008°42'0 0.0
2016-Oct-28 19:31N 53°53' E 008°42'0 0.0
2016-Oct-28 16:28N 53°52' E 008°42'8 8.5
2016-Oct-28 15:34N 53°51' E 008°55'8 8.4
2016-Oct-28 14:33N 53°54' E 009°09'34 6.5
2016-Oct-28 09:20N 54°20' E 009°44'5 6.5
2016-Oct-28 08:31N 54°21' E 009°53'6 6.5
2016-Oct-28 07:33N 54°22' E 010°04'6 0.8
2016-Oct-28 00:32N 54°24' E 010°13'1 0.6
2016-Oct-27 23:33N 54°24' E 010°12'8 4.0
2016-Oct-27 21:33N 54°30' E 010°20'  
Track history (hours):
 
Tides and Currents Weather Stations Pressure Air Temp Water Temp Dewpoint Dewpoint Depression Visibility Wind Speed Wind Dir Waves Ship Positions

Jou Jou

Last reported at 2016-Oct-31 07:15 UTC. Time now 2016-Dec-09 04:05 UTC.
Position N 51°36' E 004°01'.
Warning: this ship's position is 38 days out of date.

Length 12 m.

Type: Sailing vessel. MMSI: 211187970.

Date/timePositionNaut miles runAvg speedWind from/ knotsBaromVisibWave heightAir tempDewpointWater temp
2016-Oct-31 07:15N 51°36' E 004°01'15 4.1
2016-Oct-31 03:33N 51°38' E 003°36'42 6.0
2016-Oct-30 20:33N 52°16' E 004°08'43 6.1
2016-Oct-30 13:31N 52°56' E 004°33'7 6.7
2016-Oct-30 12:25N 53°03' E 004°37'34 7.0
2016-Oct-30 07:32N 53°27' E 005°17'30 5.8
2016-Oct-30 02:23N 53°36' E 006°05'91 6.1
2016-Oct-29 11:28N 53°57' E 008°36'6 3.0
2016-Oct-29 09:21N 53°52' E 008°42'0 0.0
2016-Oct-29 06:32N 53°52' E 008°42'0 0.0
2016-Oct-29 02:19N 53°53' E 008°42'0 0.0
2016-Oct-28 23:25N 53°53' E 008°42'0 0.0
2016-Oct-28 21:31N 53°53' E 008°42'0 0.0
2016-Oct-28 19:31N 53°53' E 008°42'0 0.0
2016-Oct-28 16:28N 53°52' E 008°42'8 8.5
2016-Oct-28 15:34N 53°51' E 008°55'8 8.4
2016-Oct-28 14:33N 53°54' E 009°09'34 6.5
2016-Oct-28 09:20N 54°20' E 009°44'5 6.5
2016-Oct-28 08:31N 54°21' E 009°53'6 6.5
2016-Oct-28 07:33N 54°22' E 010°04'6 0.8
2016-Oct-28 00:32N 54°24' E 010°13'1 0.6
2016-Oct-27 23:33N 54°24' E 010°12'8 4.0
2016-Oct-27 21:33N 54°30' E 010°20'  

Dump ship's entire track history